Time;durP1;ratioP1;P1;durP2;ratioP2;P2;SDS_P1;SDS_P2;PMS_P1;PMS_P2;Temp;Humidity;BMP_temperature;BMP_pressure;BME280_temperature;BME280_humidity;BME280_pressure;Samples;Min_cycle;Max_cycle;Signal;HPM_P1;HPM_P2
2022/05/12 00:01:11;;;;;;;5.97;1.67;;;;;;;-145.50;100.00;65435.88;5080803;28;20199;-64
2022/05/12 00:03:37;;;;;;;5.18;1.27;;;;;;;-145.50;100.00;65435.88;5063257;28;20084;-63
2022/05/12 00:06:04;;;;;;;3.42;1.20;;;;;;;-145.50;100.00;65435.88;5065424;28;20096;-64
2022/05/12 00:08:31;;;;;;;5.00;1.20;;;;;;;-145.50;100.00;65435.88;5076486;28;20084;-65
2022/05/12 00:10:58;;;;;;;7.88;1.67;;;;;;;-145.50;100.00;65435.88;5079096;28;20135;-65
2022/05/12 00:13:24;;;;;;;6.20;1.50;;;;;;;-145.50;100.00;65435.88;5059541;28;20052;-64
2022/05/12 00:15:53;;;;;;;3.22;1.20;;;;;;;-145.50;100.00;65435.88;5075698;28;20040;-65
2022/05/12 00:18:19;;;;;;;7.47;1.30;;;;;;;-145.50;100.00;65435.88;5055771;28;20478;-63
2022/05/12 00:20:46;;;;;;;5.45;1.20;;;;;;;-145.50;100.00;65435.88;5065461;28;20096;-64
2022/05/12 00:23:16;;;;;;;4.72;1.13;;;;;;;-145.50;100.00;65435.88;5059939;28;20076;-65
2022/05/12 00:25:47;;;;;;;7.40;1.13;;;;;;;-145.50;100.00;65435.88;5070617;28;20044;-64
2022/05/12 00:28:16;;;;;;;7.07;1.33;;;;;;;-145.50;100.00;65435.88;5084277;28;20070;-63
2022/05/12 00:30:43;;;;;;;;;;;;;;;-145.50;100.00;65435.88;5061232;28;20661;-63
2022/05/12 00:33:10;;;;;;;5.07;1.35;;;;;;;-145.50;100.00;65435.88;5065128;28;20011;-64
2022/05/12 00:35:39;;;;;;;6.03;1.27;;;;;;;-145.50;100.00;65435.88;5060759;28;20048;-64
2022/05/12 00:38:06;;;;;;;5.68;1.58;;;;;;;-145.50;100.00;65435.88;5067578;28;20052;-65
2022/05/12 00:40:32;;;;;;;9.55;1.55;;;;;;;-145.50;100.00;65435.88;5063444;28;20052;-65
2022/05/12 00:43:01;;;;;;;6.25;1.30;;;;;;;-145.50;100.00;65435.88;5067137;28;20460;-64
2022/05/12 00:45:32;;;;;;;4.15;1.25;;;;;;;-145.50;100.00;65435.88;5067417;28;20428;-64
2022/05/12 00:47:58;;;;;;;7.05;1.75;;;;;;;-145.50;100.00;65435.88;5062961;28;20136;-66
2022/05/12 00:50:32;;;;;;;5.53;1.17;;;;;;;-145.50;100.00;65435.88;5077488;28;20405;-65
2022/05/12 00:53:01;;;;;;;7.55;1.35;;;;;;;-145.50;100.00;65435.88;5062736;28;20055;-65
2022/05/12 00:55:33;;;;;;;8.30;1.50;;;;;;;-145.50;100.00;65435.88;5072292;28;20052;-64
2022/05/12 00:58:05;;;;;;;5.80;1.55;;;;;;;-145.50;100.00;65435.88;5082757;28;20048;-66
2022/05/12 01:00:32;;;;;;;7.05;1.27;;;;;;;-145.50;100.00;65435.88;5078981;28;20047;-65
2022/05/12 01:03:03;;;;;;;6.65;1.83;;;;;;;-145.50;100.00;65435.88;5082882;28;20533;-66
2022/05/12 01:05:30;;;;;;;8.77;2.05;;;;;;;-145.50;100.00;65435.88;5074729;28;20053;-66
2022/05/12 01:07:58;;;;;;;5.30;1.70;;;;;;;-145.50;100.00;65435.88;5066218;28;20048;-66
2022/05/12 01:10:26;;;;;;;6.22;1.45;;;;;;;-145.50;100.00;65435.88;5061924;28;20139;-66
2022/05/12 01:12:52;;;;;;;9.47;1.80;;;;;;;-145.50;100.00;65435.88;5070582;28;20052;-65
2022/05/12 01:15:24;;;;;;;9.48;1.55;;;;;;;-145.50;100.00;65435.88;5067735;28;20075;-65
2022/05/12 01:18:04;;;;;;;11.00;1.73;;;;;;;-145.50;100.00;65435.88;5078316;28;20052;-65
2022/05/12 01:20:30;;;;;;;7.15;1.55;;;;;;;-145.50;100.00;65435.88;5078886;28;20048;-66
2022/05/12 01:23:06;;;;;;;10.35;1.65;;;;;;;-145.50;100.00;65435.88;5067262;28;20155;-66
2022/05/12 01:25:33;;;;;;;6.95;1.88;;;;;;;-145.50;100.00;65435.88;5066242;28;20399;-63
2022/05/12 01:28:00;;;;;;;9.55;1.50;;;;;;;-145.50;100.00;65435.88;5068666;28;20127;-65
2022/05/12 01:30:26;;;;;;;6.15;1.70;;;;;;;-145.50;100.00;65435.88;5069925;28;20050;-65
2022/05/12 01:32:53;;;;;;;9.95;1.92;;;;;;;-145.50;100.00;65435.88;5074644;28;20161;-65
2022/05/12 01:35:22;;;;;;;9.35;1.55;;;;;;;-145.50;100.00;65435.88;5074274;28;20053;-65
2022/05/12 01:37:48;;;;;;;5.88;1.73;;;;;;;-145.50;100.00;65435.88;5061027;28;20515;-65
2022/05/12 01:40:18;;;;;;;8.68;1.70;;;;;;;-145.50;100.00;65435.88;5082424;28;20126;-64
2022/05/12 01:42:45;;;;;;;9.25;1.63;;;;;;;-145.50;100.00;65435.88;5065007;28;20151;-65
2022/05/12 01:45:13;;;;;;;8.80;1.73;;;;;;;-145.50;100.00;65435.88;5081781;28;20048;-64
2022/05/12 01:47:40;;;;;;;4.60;1.25;;;;;;;-145.50;100.00;65435.88;5085802;28;20040;-65
2022/05/12 01:50:09;;;;;;;12.13;1.98;;;;;;;-145.50;100.00;65435.88;5055179;28;20055;-64
2022/05/12 01:52:37;;;;;;;10.52;1.67;;;;;;;-145.50;100.00;65435.88;5068801;28;20107;-66
2022/05/12 01:55:04;;;;;;;6.55;1.60;;;;;;;-145.50;100.00;65435.88;5061307;28;20056;-66
2022/05/12 01:57:31;;;;;;;7.63;1.50;;;;;;;-145.50;100.00;65435.88;5070091;28;20055;-65
2022/05/12 01:59:57;;;;;;;9.50;1.85;;;;;;;-145.50;100.00;65435.88;5063237;28;20074;-66
2022/05/12 02:02:24;;;;;;;5.03;1.73;;;;;;;-145.50;100.00;65435.88;5073421;28;20072;-64
2022/05/12 02:04:50;;;;;;;6.70;1.63;;;;;;;-145.50;100.00;65435.88;5071980;28;20052;-66
2022/05/12 02:07:18;;;;;;;7.68;1.52;;;;;;;-145.50;100.00;65435.88;5075017;28;20135;-65
2022/05/12 02:09:45;;;;;;;8.55;1.77;;;;;;;-145.50;100.00;65435.88;5069570;28;20110;-65
2022/05/12 02:12:11;;;;;;;6.03;1.65;;;;;;;-145.50;100.00;65435.88;5063245;28;20048;-65
2022/05/12 02:14:38;;;;;;;4.65;1.48;;;;;;;-145.50;100.00;65435.88;5069706;28;20057;-65
2022/05/12 02:17:04;;;;;;;7.53;1.73;;;;;;;-145.50;100.00;65435.88;5057859;28;20139;-64
2022/05/12 02:19:31;;;;;;;7.55;1.95;;;;;;;-145.50;100.00;65435.88;5064357;28;20068;-65
2022/05/12 02:22:00;;;;;;;10.88;1.80;;;;;;;-145.50;100.00;65435.88;5069470;28;20140;-64
2022/05/12 02:24:27;;;;;;;8.63;2.17;;;;;;;-145.50;100.00;65435.88;5062642;28;20493;-64
2022/05/12 02:26:55;;;;;;;13.63;2.83;;;;;;;-145.50;100.00;65435.88;5068681;28;20386;-65
2022/05/12 02:29:22;;;;;;;;;;;;;;;-145.50;100.00;65435.88;5068622;28;20049;-64
2022/05/12 02:31:48;;;;;;;7.78;2.15;;;;;;;-145.50;100.00;65435.88;5065858;28;20012;-64
2022/05/12 02:34:15;;;;;;;7.35;2.10;;;;;;;-145.50;100.00;65435.88;5071566;28;20598;-64
2022/05/12 02:36:41;;;;;;;8.23;1.67;;;;;;;-145.50;100.00;65435.88;5088960;28;20044;-64
2022/05/12 02:39:08;;;;;;;8.63;2.67;;;;;;;-145.50;100.00;65435.88;5087103;28;20222;-65
2022/05/12 02:41:34;;;;;;;6.88;2.22;;;;;;;-145.50;100.00;65435.88;5083004;28;20602;-65
2022/05/12 02:44:01;;;;;;;8.50;2.55;;;;;;;-145.50;100.00;65435.88;5087059;28;20062;-65
2022/05/12 02:46:27;;;;;;;9.88;2.60;;;;;;;-145.50;100.00;65435.88;5074245;28;20047;-64
2022/05/12 02:48:53;;;;;;;5.95;2.38;;;;;;;-145.50;100.00;65435.88;5088597;28;20152;-64
2022/05/12 02:51:20;;;;;;;11.20;2.30;;;;;;;-145.50;100.00;65435.88;5089208;28;20095;-64
2022/05/12 02:53:47;;;;;;;14.07;2.65;;;;;;;-145.50;100.00;65435.88;5084264;28;20453;-65
2022/05/12 02:56:13;;;;;;;7.75;2.60;;;;;;;-145.50;100.00;65435.88;5089386;28;20147;-65
2022/05/12 02:58:41;;;;;;;7.75;2.55;;;;;;;-145.50;100.00;65435.88;5077448;28;20131;-64
2022/05/12 03:01:08;;;;;;;8.60;2.90;;;;;;;-145.50;100.00;65435.88;5085005;28;20052;-64
2022/05/12 03:03:35;;;;;;;8.55;2.60;;;;;;;-145.50;100.00;65435.88;5082336;28;20566;-64
2022/05/12 03:06:02;;;;;;;6.72;2.30;;;;;;;-145.50;100.00;65435.88;5088448;28;20131;-65
2022/05/12 03:08:28;;;;;;;9.15;2.33;;;;;;;-145.50;100.00;65435.88;5088849;28;20048;-64
2022/05/12 03:10:55;;;;;;;10.75;2.88;;;;;;;-145.50;100.00;65435.88;5083312;28;20146;-65
2022/05/12 03:13:23;;;;;;;8.35;2.58;;;;;;;-145.50;100.00;65435.88;5081854;28;20052;-64
2022/05/12 03:15:50;;;;;;;8.60;2.60;;;;;;;-145.50;100.00;65435.88;5078987;28;20101;-65
2022/05/12 03:18:18;;;;;;;8.65;2.85;;;;;;;-145.50;100.00;65435.88;5088953;28;20154;-64
2022/05/12 03:20:45;;;;;;;8.43;3.08;;;;;;;-145.50;100.00;65435.88;5081354;28;20572;-64
2022/05/12 03:23:13;;;;;;;6.97;3.00;;;;;;;-145.50;100.00;65435.88;5088639;28;20056;-65
2022/05/12 03:25:43;;;;;;;9.82;2.83;;;;;;;-145.50;100.00;65435.88;5078081;28;20123;-64
2022/05/12 03:28:10;;;;;;;8.35;2.80;;;;;;;-145.50;100.00;65435.88;5088331;28;20142;-64
2022/05/12 03:30:37;;;;;;;8.95;3.38;;;;;;;-145.50;100.00;65435.88;5108418;28;20730;-65
2022/05/12 03:33:03;;;;;;;7.20;2.80;;;;;;;-145.50;100.00;65435.88;5101661;28;20054;-65
2022/05/12 03:35:30;;;;;;;7.60;3.38;;;;;;;-145.50;100.00;65435.88;5078093;28;20401;-65
2022/05/12 03:37:56;;;;;;;8.32;3.45;;;;;;;-145.50;100.00;65435.88;5060829;28;20549;-65
2022/05/12 03:40:23;;;;;;;9.90;2.95;;;;;;;-145.50;100.00;65435.88;5063286;28;20139;-64
2022/05/12 03:42:50;;;;;;;8.80;3.50;;;;;;;-145.50;100.00;65435.88;5076408;28;20136;-63
2022/05/12 03:45:17;;;;;;;9.10;3.30;;;;;;;-145.50;100.00;65435.88;5084690;28;20094;-64
2022/05/12 03:47:48;;;;;;;7.72;3.25;;;;;;;-145.50;100.00;65435.88;5070520;28;20134;-65
2022/05/12 03:50:17;;;;;;;9.10;3.65;;;;;;;-145.50;100.00;65435.88;5073306;28;20052;-64
2022/05/12 03:52:47;;;;;;;12.55;4.43;;;;;;;-145.50;100.00;65435.88;5067905;28;20045;-64
2022/05/12 03:55:16;;;;;;;11.55;4.40;;;;;;;-145.50;100.00;65435.88;5045901;28;20102;-65
2022/05/12 03:57:44;;;;;;;11.55;3.80;;;;;;;-145.50;100.00;65435.88;5065817;28;20493;-64
2022/05/12 04:00:18;;;;;;;6.50;3.47;;;;;;;-145.50;100.00;65435.88;5061951;28;20611;-64
2022/05/12 04:02:46;;;;;;;7.15;3.65;;;;;;;-145.50;100.00;65435.88;5068138;28;20413;-65
2022/05/12 04:05:14;;;;;;;9.30;4.07;;;;;;;-145.50;100.00;65435.88;5080946;28;20474;-64
2022/05/12 04:07:48;;;;;;;8.98;3.88;;;;;;;-145.50;100.00;65435.88;5056688;28;20490;-65
2022/05/12 04:10:15;;;;;;;9.50;3.95;;;;;;;-145.50;100.00;65435.88;5079172;28;20113;-65
2022/05/12 04:12:42;;;;;;;8.68;3.75;;;;;;;-145.50;100.00;65435.88;5061896;28;20053;-65
2022/05/12 04:15:08;;;;;;;7.57;3.72;;;;;;;-145.50;100.00;65435.88;5067626;28;20094;-63
2022/05/12 04:17:36;;;;;;;8.82;3.97;;;;;;;-145.50;100.00;65435.88;5062093;28;20128;-65
2022/05/12 04:20:05;;;;;;;8.98;3.53;;;;;;;-145.50;100.00;65435.88;5066842;28;20078;-64
2022/05/12 04:22:31;;;;;;;11.00;3.75;;;;;;;-145.50;100.00;65435.88;5083066;28;20080;-63
2022/05/12 04:24:58;;;;;;;8.38;3.35;;;;;;;-145.50;100.00;65435.88;5090646;28;20526;-64
2022/05/12 04:27:24;;;;;;;9.32;3.20;;;;;;;-145.50;100.00;65435.88;5112560;28;20134;-65
2022/05/12 04:29:51;;;;;;;9.55;4.13;;;;;;;-145.50;100.00;65435.88;5106134;28;20085;-65
2022/05/12 04:32:17;;;;;;;7.60;3.00;;;;;;;-145.50;100.00;65435.88;5112846;28;20139;-65
2022/05/12 04:37:32;;;;;;;8.85;3.45;;;;;;;-145.50;100.00;65435.88;5087423;28;20079;-63
2022/05/12 04:40:29;;;;;;;6.70;2.90;;;;;;;-145.50;100.00;65435.88;5085706;28;20446;-65
2022/05/12 04:42:58;;;;;;;8.90;3.15;;;;;;;-145.50;100.00;65435.88;5082831;28;20056;-64
2022/05/12 04:45:28;;;;;;;7.45;2.90;;;;;;;-145.50;100.00;65435.88;5091766;28;20613;-64
2022/05/12 04:47:55;;;;;;;7.07;2.80;;;;;;;-145.50;100.00;65435.88;5099649;28;20505;-65
2022/05/12 04:50:29;;;;;;;7.85;2.88;;;;;;;-145.50;100.00;65435.88;5106716;28;20062;-65
2022/05/12 04:52:56;;;;;;;4.90;2.90;;;;;;;-145.50;100.00;65435.88;5104732;28;20062;-65
2022/05/12 04:55:23;;;;;;;7.03;3.90;;;;;;;-145.50;100.00;65435.88;5111670;28;20170;-65
2022/05/12 04:57:53;;;;;;;8.88;2.90;;;;;;;-145.50;100.00;65435.88;5104244;28;20051;-63
2022/05/12 05:00:23;;;;;;;6.53;3.00;;;;;;;-145.50;100.00;65435.88;5096495;28;20058;-62
2022/05/12 05:02:50;;;;;;;5.30;2.58;;;;;;;-145.50;100.00;65435.88;5080060;28;20143;-65
2022/05/12 05:05:18;;;;;;;7.95;2.90;;;;;;;-145.50;100.00;65435.88;5088551;28;20048;-65
2022/05/12 05:07:45;;;;;;;7.63;3.10;;;;;;;-145.50;100.00;65435.88;5091303;28;20048;-65
2022/05/12 05:10:12;;;;;;;7.97;2.97;;;;;;;-145.50;100.00;65435.88;5083958;28;20401;-66
2022/05/12 05:12:40;;;;;;;10.45;3.53;;;;;;;-145.50;100.00;65435.88;5076890;28;20460;-64
2022/05/12 05:15:08;;;;;;;12.73;3.72;;;;;;;-145.50;100.00;65435.88;5075002;28;20126;-65
2022/05/12 05:17:35;;;;;;;7.57;3.47;;;;;;;-145.50;100.00;65435.88;5078540;28;20044;-64
2022/05/12 05:20:05;;;;;;;6.72;3.38;;;;;;;-145.50;100.00;65435.88;5079684;28;20051;-65
2022/05/12 05:22:35;;;;;;;7.63;3.20;;;;;;;-145.50;100.00;65435.88;5076459;28;20048;-65
2022/05/12 05:25:03;;;;;;;6.32;3.40;;;;;;;-145.50;100.00;65435.88;5076134;28;20127;-64
2022/05/12 05:27:30;;;;;;;8.40;3.47;;;;;;;-145.50;100.00;65435.88;5079374;28;20090;-65
2022/05/12 05:29:56;;;;;;;14.85;3.80;;;;;;;-145.50;100.00;65435.88;5085946;28;20044;-64
2022/05/12 05:32:23;;;;;;;12.18;4.22;;;;;;;-145.50;100.00;65435.88;5070042;28;20055;-70
2022/05/12 05:34:49;;;;;;;10.13;4.00;;;;;;;-145.50;100.00;65435.88;5070969;28;20051;-64
2022/05/12 05:37:16;;;;;;;11.95;4.07;;;;;;;-145.50;100.00;65435.88;5065999;28;21010;-64
2022/05/12 05:39:42;;;;;;;9.85;4.20;;;;;;;-145.50;100.00;65435.88;5075509;28;20040;-64
2022/05/12 05:42:13;;;;;;;12.05;4.13;;;;;;;-145.50;100.00;65435.88;5066800;28;20384;-64
2022/05/12 05:44:39;;;;;;;10.05;3.97;;;;;;;-145.50;100.00;65435.88;5060270;28;20712;-64
2022/05/12 05:47:07;;;;;;;13.13;4.47;;;;;;;-145.50;100.00;65435.88;5077043;28;20123;-64
2022/05/12 05:49:35;;;;;;;10.35;4.57;;;;;;;-145.50;100.00;65435.88;5063526;28;20040;-63
2022/05/12 05:54:48;;;;;;;11.77;4.88;;;;;;;-145.50;100.00;65435.88;5065476;28;20397;-64
2022/05/12 05:57:23;;;;;;;15.02;5.03;;;;;;;-145.50;100.00;65435.88;5077465;28;20131;-63
2022/05/12 06:00:04;;;;;;;12.88;4.88;;;;;;;-145.50;100.00;65435.88;5058814;28;20059;-63
2022/05/12 06:02:33;;;;;;;14.32;5.47;;;;;;;-145.50;100.00;65435.88;5083484;28;20052;-63
2022/05/12 06:05:00;;;;;;;17.25;4.95;;;;;;;-145.50;100.00;65435.88;5088923;28;20083;-65
2022/05/12 06:07:26;;;;;;;10.75;4.82;;;;;;;-145.50;100.00;65435.88;5083172;28;20055;-65
2022/05/12 06:09:53;;;;;;;13.48;5.30;;;;;;;-145.50;100.00;65435.88;5084350;28;20082;-66
2022/05/12 06:12:19;;;;;;;15.38;5.50;;;;;;;-145.50;100.00;65435.88;5074889;28;20047;-64
2022/05/12 06:14:46;;;;;;;11.00;4.93;;;;;;;-145.50;100.00;65435.88;5071558;28;20109;-65
2022/05/12 06:17:13;;;;;;;12.48;5.03;;;;;;;-145.50;100.00;65435.88;5078894;28;20040;-65
2022/05/12 06:19:41;;;;;;;12.73;5.47;;;;;;;-145.50;100.00;65435.88;5090080;28;20588;-64
2022/05/12 06:22:08;;;;;;;17.42;5.55;;;;;;;-145.50;100.00;65435.88;5072945;28;20094;-66
2022/05/12 06:24:35;;;;;;;13.65;5.18;;;;;;;-145.50;100.00;65435.88;5063674;28;20054;-66
2022/05/12 06:27:05;;;;;;;13.18;5.20;;;;;;;-145.50;100.00;65435.88;5071083;28;20067;-65
2022/05/12 06:29:32;;;;;;;11.75;5.07;;;;;;;-145.50;100.00;65435.88;5074337;28;20083;-66
2022/05/12 06:32:01;;;;;;;9.65;5.32;;;;;;;-145.50;100.00;65435.88;5089314;28;20047;-65
2022/05/12 06:34:28;;;;;;;9.23;5.38;;;;;;;-145.50;100.00;65435.88;5082041;28;20044;-65
2022/05/12 06:36:56;;;;;;;12.70;5.38;;;;;;;-145.50;100.00;65435.88;5102109;28;20051;-65
2022/05/12 06:39:22;;;;;;;9.98;5.07;;;;;;;-145.50;100.00;65435.88;5102840;28;20047;-65
2022/05/12 06:41:49;;;;;;;14.05;6.28;;;;;;;-145.50;100.00;65435.88;5079919;28;20529;-65
2022/05/12 06:44:15;;;;;;;14.15;5.78;;;;;;;-145.50;100.00;65435.88;5069371;28;20935;-64
2022/05/12 06:46:43;;;;;;;13.95;5.28;;;;;;;-145.50;100.00;65435.88;5061936;28;20061;-65
2022/05/12 06:49:09;;;;;;;14.65;5.95;;;;;;;-145.50;100.00;65435.88;5077125;28;20048;-65
2022/05/12 06:51:37;;;;;;;13.30;6.10;;;;;;;-145.50;100.00;65435.88;5062327;28;20047;-64
2022/05/12 06:54:03;;;;;;;14.75;5.80;;;;;;;-145.50;100.00;65435.88;5056578;28;21281;-65
2022/05/12 06:56:30;;;;;;;11.57;5.57;;;;;;;-145.50;100.00;65435.88;5067997;28;20501;-65
2022/05/12 06:58:56;;;;;;;13.75;5.90;;;;;;;-145.50;100.00;65435.88;5073599;28;20268;-66
2022/05/12 07:01:23;;;;;;;10.43;5.05;;;;;;;-145.50;100.00;65435.88;5065099;28;20052;-66
2022/05/12 07:03:50;;;;;;;15.95;5.45;;;;;;;-145.50;100.00;65435.88;5059357;28;20337;-65
2022/05/12 07:06:17;;;;;;;13.77;5.03;;;;;;;-145.50;100.00;65435.88;5064104;28;20120;-65
2022/05/12 07:08:44;;;;;;;14.05;4.97;;;;;;;-145.50;100.00;65435.88;5075331;28;20398;-65
2022/05/12 07:11:11;;;;;;;13.07;5.35;;;;;;;-145.50;100.00;65435.88;5077479;28;20052;-65
2022/05/12 07:13:38;;;;;;;11.85;4.82;;;;;;;-145.50;100.00;65435.88;5081513;28;20985;-66
2022/05/12 07:16:05;;;;;;;11.93;4.75;;;;;;;-145.50;100.00;65435.88;5056031;28;20143;-65
2022/05/12 07:18:34;;;;;;;12.45;5.38;;;;;;;-145.50;100.00;65435.88;5059964;28;20044;-65
2022/05/12 07:26:49;;;;;;;12.98;4.88;;;;;;;-145.50;100.00;65435.88;5053917;28;20059;-65
2022/05/12 07:29:19;;;;;;;11.97;4.97;;;;;;;-145.50;100.00;65435.88;5062370;28;20352;-65
2022/05/12 07:31:48;;;;;;;11.00;5.55;;;;;;;-145.50;100.00;65435.88;5048791;28;20049;-64
2022/05/12 07:34:16;;;;;;;8.45;4.03;;;;;;;-145.50;100.00;65435.88;5069591;28;20062;-65
2022/05/12 07:36:46;;;;;;;11.13;4.90;;;;;;;-145.50;100.00;65435.88;5078477;28;20049;-65
2022/05/12 07:39:15;;;;;;;10.02;4.80;;;;;;;-145.50;100.00;65435.88;5057853;28;20449;-65
2022/05/12 07:41:42;;;;;;;11.75;4.50;;;;;;;-145.50;100.00;65435.88;5074197;28;20051;-64
2022/05/12 07:44:10;;;;;;;11.27;4.93;;;;;;;-145.50;100.00;65435.88;5054861;28;20048;-65
2022/05/12 07:46:37;;;;;;;10.05;4.38;;;;;;;-145.50;100.00;65435.88;5066338;28;20056;-66
2022/05/12 07:49:04;;;;;;;12.88;4.88;;;;;;;-145.50;100.00;65435.88;5056330;28;20283;-66
2022/05/12 07:51:31;;;;;;;11.90;4.78;;;;;;;-145.50;100.00;65435.88;5063149;28;20817;-66
2022/05/12 07:53:58;;;;;;;16.45;4.43;;;;;;;-145.50;100.00;65435.88;5065714;28;20605;-65
2022/05/12 07:56:27;;;;;;;13.10;4.13;;;;;;;-145.50;100.00;65435.88;5066510;28;20513;-63
2022/05/12 07:58:56;;;;;;;11.93;4.13;;;;;;;-145.50;100.00;65435.88;5061026;28;20045;-66
2022/05/12 08:01:24;;;;;;;11.85;4.00;;;;;;;-145.50;100.00;65435.88;5049906;28;20050;-65
2022/05/12 08:03:51;;;;;;;9.25;4.05;;;;;;;-145.50;100.00;65435.88;5062770;28;20122;-65
2022/05/12 08:06:18;;;;;;;13.43;4.15;;;;;;;-145.50;100.00;65435.88;5064939;28;20052;-65
2022/05/12 08:08:49;;;;;;;9.23;4.55;;;;;;;-145.50;100.00;65435.88;5066339;28;20140;-66
2022/05/12 08:11:16;;;;;;;13.98;4.50;;;;;;;-145.50;100.00;65435.88;5056943;28;20072;-68
2022/05/12 08:13:45;;;;;;;10.85;4.00;;;;;;;-145.50;100.00;65435.88;5058864;28;20098;-66
2022/05/12 08:16:11;;;;;;;11.00;4.13;;;;;;;-145.50;100.00;65435.88;5057948;28;20494;-66
2022/05/12 08:18:38;;;;;;;10.15;3.60;;;;;;;-145.50;100.00;65435.88;5062933;28;20091;-66
2022/05/12 08:21:05;;;;;;;8.13;3.30;;;;;;;-145.50;100.00;65435.88;5070539;28;20092;-66
2022/05/12 08:23:31;;;;;;;8.02;3.10;;;;;;;-145.50;100.00;65435.88;5066369;28;20052;-65
2022/05/12 08:25:58;;;;;;;11.77;3.60;;;;;;;-145.50;100.00;65435.88;5062580;28;20135;-64
2022/05/12 08:28:26;;;;;;;10.15;3.38;;;;;;;-145.50;100.00;65435.88;5049742;28;20049;-66
2022/05/12 08:30:53;;;;;;;9.15;3.70;;;;;;;-145.50;100.00;65435.88;5058027;28;20493;-66
2022/05/12 08:33:21;;;;;;;9.07;3.90;;;;;;;-145.50;100.00;65435.88;5073281;28;20076;-65
2022/05/12 08:35:48;;;;;;;10.40;4.10;;;;;;;-145.50;100.00;65435.88;5054982;28;20102;-64
2022/05/12 08:38:16;;;;;;;8.70;2.83;;;;;;;-145.50;100.00;65435.88;5062682;28;20062;-66
2022/05/12 08:41:04;;;;;;;9.93;2.88;;;;;;;-145.50;100.00;65435.88;5060275;28;20139;-67
2022/05/12 08:43:49;;;;;;;8.98;2.83;;;;;;;-145.50;100.00;65435.88;5058961;28;20143;-66
2022/05/12 08:46:22;;;;;;;8.32;2.83;;;;;;;-145.50;100.00;65435.88;5060302;28;20493;-66
2022/05/12 08:48:59;;;;;;;4.88;2.33;;;;;;;-145.50;100.00;65435.88;5081941;28;20047;-66
2022/05/12 08:51:34;;;;;;;9.80;2.90;;;;;;;-145.50;100.00;65435.88;5059156;28;20078;-66
2022/05/12 08:54:04;;;;;;;9.13;3.33;;;;;;;-145.50;100.00;65435.88;5059880;28;20432;-65
2022/05/12 08:56:32;;;;;;;7.32;3.08;;;;;;;-145.50;100.00;65435.88;5060702;28;20135;-66
2022/05/12 08:58:59;;;;;;;5.87;2.80;;;;;;;-145.50;100.00;65435.88;5058208;28;20131;-66
2022/05/12 09:01:55;;;;;;;7.10;2.60;;;;;;;-145.50;100.00;65435.88;5063695;28;20056;-66
2022/05/12 09:04:43;;;;;;;5.70;2.88;;;;;;;-145.50;100.00;65435.88;5031887;28;20044;-66
2022/05/12 09:07:18;;;;;;;12.00;3.20;;;;;;;-145.50;100.00;65435.88;5100464;28;20061;-66
2022/05/12 09:09:55;;;;;;;8.57;3.00;;;;;;;-145.50;100.00;65435.88;5078616;28;20048;-65
2022/05/12 09:12:59;;;;;;;5.22;2.30;;;;;;;-145.50;100.00;65435.88;5054054;28;20055;-66
2022/05/12 09:15:35;;;;;;;5.25;2.55;;;;;;;-145.50;100.00;65435.88;5050993;28;20412;-65
2022/05/12 09:18:14;;;;;;;6.53;2.60;;;;;;;-145.50;100.00;65435.88;5067079;28;20087;-66
2022/05/12 09:20:41;;;;;;;4.95;1.80;;;;;;;-145.50;100.00;65435.88;5070708;28;20056;-66
2022/05/12 09:23:08;;;;;;;6.03;2.13;;;;;;;-145.50;100.00;65435.88;5071849;28;20555;-66
2022/05/12 09:25:36;;;;;;;6.38;2.22;;;;;;;-145.50;100.00;65435.88;5053610;28;20131;-66
2022/05/12 09:28:33;;;;;;;6.80;2.10;;;;;;;-145.50;100.00;65435.88;5064377;28;20072;-67
2022/05/12 09:31:10;;;;;;;6.13;2.17;;;;;;;-145.50;100.00;65435.88;5064194;28;20048;-66
2022/05/12 09:33:42;;;;;;;9.00;2.38;;;;;;;-145.50;100.00;65435.88;5074387;28;20062;-64
2022/05/12 09:36:16;;;;;;;5.07;2.30;;;;;;;-145.50;100.00;65435.88;5073577;28;20074;-66
2022/05/12 09:38:46;;;;;;;8.55;2.60;;;;;;;-145.50;100.00;65435.88;5051985;28;20140;-66
2022/05/12 09:41:38;;;;;;;7.07;2.00;;;;;;;-145.50;100.00;65435.88;5077649;28;20137;-65
2022/05/12 09:44:26;;;;;;;4.80;1.98;;;;;;;-145.50;100.00;65435.88;5056777;28;20460;-66
2022/05/12 09:47:12;;;;;;;7.40;2.10;;;;;;;-145.50;100.00;65435.88;5078337;28;20143;-65
2022/05/12 09:49:44;;;;;;;6.57;2.10;;;;;;;-145.50;100.00;65435.88;5064731;28;20813;-65
2022/05/12 09:52:36;;;;;;;6.47;2.08;;;;;;;-145.50;100.00;65435.88;5058875;28;20749;-65
2022/05/12 09:55:21;;;;;;;8.18;2.10;;;;;;;-145.50;100.00;65435.88;5068464;28;20054;-65
2022/05/12 09:58:02;;;;;;;8.48;2.38;;;;;;;-145.50;100.00;65435.88;5082182;28;20087;-66
2022/05/12 10:00:48;;;;;;;6.35;1.92;;;;;;;-145.50;100.00;65435.88;5064838;28;20056;-67
2022/05/12 10:09:14;;;;;;;6.75;1.67;;;;;;;-145.50;100.00;65435.88;5063877;28;20048;-64
2022/05/12 10:12:00;;;;;;;4.95;1.70;;;;;;;-145.50;100.00;65435.88;5065710;28;20562;-66
2022/05/12 10:14:44;;;;;;;5.95;1.80;;;;;;;-145.50;100.00;65435.88;5077632;28;20448;-65
2022/05/12 10:17:32;;;;;;;5.57;1.70;;;;;;;-145.50;100.00;65435.88;5065472;28;20044;-65
2022/05/12 10:20:07;;;;;;;4.45;1.70;;;;;;;-145.50;100.00;65435.88;5076511;28;20044;-66
2022/05/12 10:22:42;;;;;;;5.35;1.80;;;;;;;-145.50;100.00;65435.88;5078481;28;20513;-66
2022/05/12 10:25:37;;;;;;;5.30;1.60;;;;;;;-145.50;100.00;65435.88;5082244;28;20780;-64
2022/05/12 10:28:28;;;;;;;6.82;1.67;;;;;;;-145.50;100.00;65435.88;5073649;28;20580;-65
2022/05/12 10:31:16;;;;;;;4.57;1.52;;;;;;;-145.50;100.00;65435.88;5078523;28;20146;-65
2022/05/12 10:33:51;;;;;;;;;;;;;;;-145.50;100.00;65435.88;5067072;28;20144;-65
2022/05/12 10:36:27;;;;;;;4.70;1.92;;;;;;;-145.50;100.00;65435.88;5057465;28;20019;-65
2022/05/12 10:39:18;;;;;;;2.60;1.33;;;;;;;-145.50;100.00;65435.88;5070592;28;20135;-65
2022/05/12 10:42:02;;;;;;;3.30;1.00;;;;;;;-145.50;100.00;65435.88;5052405;28;20057;-63
2022/05/12 10:45:12;;;;;;;4.20;1.40;;;;;;;-145.50;100.00;65435.88;5062541;28;20055;-64
2022/05/12 10:47:49;;;;;;;7.07;1.35;;;;;;;-145.50;100.00;65435.88;5054342;28;20101;-64
2022/05/12 10:50:24;;;;;;;3.30;1.30;;;;;;;-145.50;100.00;65435.88;5064195;28;20665;-64
2022/05/12 10:53:15;;;;;;;6.68;1.33;;;;;;;-145.50;100.00;65435.88;5057274;28;20544;-66
2022/05/12 10:55:44;;;;;;;4.28;1.13;;;;;;;-145.50;100.00;65435.88;5062385;28;20052;-66
2022/05/12 10:58:20;;;;;;;3.25;1.33;;;;;;;-145.50;100.00;65435.88;5061549;28;20055;-64
2022/05/12 11:01:28;;;;;;;3.28;1.30;;;;;;;-145.50;100.00;65435.88;5056983;28;20557;-63
2022/05/12 11:04:00;;;;;;;4.78;1.65;;;;;;;-145.50;100.00;65435.88;5057717;28;20244;-63
2022/05/12 11:06:32;;;;;;;4.75;1.67;;;;;;;-145.50;100.00;65435.88;5063665;28;20106;-62
2022/05/12 11:09:23;;;;;;;7.95;1.35;;;;;;;-145.50;100.00;65435.88;5056509;28;20131;-64
2022/05/12 11:11:51;;;;;;;3.33;1.30;;;;;;;-145.50;100.00;65435.88;5078025;28;20584;-64
2022/05/12 11:14:33;;;;;;;4.60;1.45;;;;;;;-145.50;100.00;65435.88;5075276;28;20147;-64
2022/05/12 11:17:25;;;;;;;3.22;1.40;;;;;;;-145.50;100.00;65435.88;5083041;28;20075;-64
2022/05/12 11:20:01;;;;;;;3.03;1.33;;;;;;;-145.50;100.00;65435.88;5080873;28;20564;-64
2022/05/12 11:22:49;;;;;;;7.50;2.05;;;;;;;-145.50;100.00;65435.88;5062323;28;20056;-65
2022/05/12 11:25:25;;;;;;;3.75;1.50;;;;;;;-145.50;100.00;65435.88;5065798;28;20832;-65
2022/05/12 11:29:41;;;;;;;4.90;1.33;;;;;;;-145.50;100.00;65435.88;5066654;28;20687;-66
2022/05/12 11:30:57;;;;;;;4.50;1.55;;;;;;;-145.50;100.00;65435.88;5083126;28;20051;-65
2022/05/12 11:33:36;;;;;;;3.53;1.10;;;;;;;-145.50;100.00;65435.88;5077458;28;20054;-64
2022/05/12 11:36:03;;;;;;;4.95;1.40;;;;;;;-145.50;100.00;65435.88;5064204;28;20086;-65
2022/05/12 11:38:39;;;;;;;3.58;1.30;;;;;;;-145.50;100.00;65435.88;5089862;28;20044;-64
2022/05/12 11:41:27;;;;;;;3.80;1.10;;;;;;;-145.50;100.00;65435.88;5060621;28;20125;-65